Time;durP1;ratioP1;P1;durP2;ratioP2;P2;SDS_P1;SDS_P2;PMS_P1;PMS_P2;Temp;Humidity;BMP_temperature;BMP_pressure;BME280_temperature;BME280_humidity;BME280_pressure;Samples;Min_cycle;Max_cycle;Signal;HPM_P1;HPM_P2
2021/05/31 00:00:14;;;;;;;12.50;8.35;;;11.60;99.90;;;;;;5056191;28;20108;-72
2021/05/31 00:02:41;;;;;;;14.98;8.50;;;11.60;99.90;;;;;;5055970;28;20425;-72
2021/05/31 00:05:07;;;;;;;15.93;9.20;;;11.50;99.90;;;;;;5056212;28;20021;-72
2021/05/31 00:07:33;;;;;;;10.52;8.35;;;11.50;99.90;;;;;;5056109;28;20021;-72
2021/05/31 00:09:58;;;;;;;15.75;9.15;;;11.50;99.90;;;;;;5056086;28;20029;-72
2021/05/31 00:12:24;;;;;;;14.65;9.30;;;11.40;99.90;;;;;;5055757;28;20083;-73
2021/05/31 00:14:49;;;;;;;13.05;8.25;;;11.40;99.90;;;;;;5055478;28;20033;-72
2021/05/31 00:17:15;;;;;;;15.77;9.90;;;11.30;99.90;;;;;;5055941;28;20465;-72
2021/05/31 00:19:42;;;;;;;19.73;8.48;;;11.30;99.90;;;;;;5055217;28;20064;-73
2021/05/31 00:22:07;;;;;;;14.68;9.10;;;11.30;99.90;;;;;;5055887;28;20025;-72
2021/05/31 00:24:33;;;;;;;17.38;9.65;;;11.20;99.90;;;;;;5055824;28;20022;-72
2021/05/31 00:26:59;;;;;;;13.30;9.52;;;11.20;99.90;;;;;;5055806;28;20459;-72
2021/05/31 00:29:25;;;;;;;19.77;10.20;;;11.20;99.90;;;;;;5055749;28;20029;-72
2021/05/31 00:31:53;;;;;;;14.82;10.15;;;11.20;99.90;;;;;;5055417;28;20068;-73
2021/05/31 00:34:18;;;;;;;17.58;10.40;;;11.10;99.90;;;;;;5055669;28;20100;-73
2021/05/31 00:36:44;;;;;;;18.23;10.20;;;11.00;99.90;;;;;;5055062;28;20025;-73
2021/05/31 00:39:10;;;;;;;14.70;9.88;;;11.00;99.90;;;;;;5054134;28;20025;-73
2021/05/31 00:41:36;;;;;;;12.73;9.25;;;11.00;99.90;;;;;;5054972;28;20025;-72
2021/05/31 00:44:02;;;;;;;15.43;10.50;;;10.90;99.90;;;;;;5054477;28;20021;-73
2021/05/31 00:46:28;;;;;;;19.77;10.55;;;10.90;99.90;;;;;;5055154;28;20023;-73
2021/05/31 00:48:53;;;;;;;18.48;10.48;;;10.80;99.90;;;;;;5055105;28;20036;-72
2021/05/31 00:51:20;;;;;;;14.25;10.15;;;10.80;99.90;;;;;;5055332;28;20459;-73
2021/05/31 00:53:45;;;;;;;16.67;10.50;;;10.70;99.90;;;;;;5054708;28;20032;-72
2021/05/31 00:56:11;;;;;;;16.60;10.23;;;10.70;99.90;;;;;;5055199;28;20493;-73
2021/05/31 00:58:36;;;;;;;14.88;10.45;;;10.70;99.90;;;;;;5055098;28;20143;-72
2021/05/31 01:01:05;;;;;;;18.73;9.88;;;10.60;99.90;;;;;;5053953;28;20021;-73
2021/05/31 01:03:31;;;;;;;18.50;10.70;;;10.50;99.90;;;;;;5055068;28;20104;-73
2021/05/31 01:06:01;;;;;;;21.17;10.98;;;10.50;99.90;;;;;;5055033;28;20052;-72
2021/05/31 01:08:45;;;;;;;17.58;10.63;;;10.50;99.90;;;;;;5054985;28;20021;-72
2021/05/31 01:11:14;;;;;;;17.00;11.45;;;10.40;99.90;;;;;;5054644;28;20028;-72
2021/05/31 01:13:45;;;;;;;16.50;10.73;;;10.40;99.90;;;;;;5054893;28;20035;-72
2021/05/31 01:16:36;;;;;;;18.98;10.90;;;10.40;99.90;;;;;;5054867;28;20021;-72
2021/05/31 01:19:20;;;;;;;16.17;10.88;;;10.30;99.90;;;;;;5054302;28;20478;-72
2021/05/31 01:22:01;;;;;;;17.70;11.18;;;10.30;99.90;;;;;;5054727;28;20025;-72
2021/05/31 01:24:59;;;;;;;22.67;11.15;;;10.30;99.90;;;;;;5054131;28;20025;-72
2021/05/31 01:28:01;;;;;;;18.33;10.82;;;10.20;99.90;;;;;;5053987;28;20055;-72
2021/05/31 01:30:26;;;;;;;17.33;10.20;;;10.20;99.90;;;;;;5054473;28;20031;-72
2021/05/31 01:32:54;;;;;;;19.55;10.82;;;10.20;99.90;;;;;;5054570;28;20450;-72
2021/05/31 01:35:25;;;;;;;18.00;10.38;;;10.20;99.90;;;;;;5054278;28;20031;-72
2021/05/31 01:37:53;;;;;;;16.00;10.55;;;10.10;99.90;;;;;;5053906;28;20086;-72
2021/05/31 01:40:22;;;;;;;16.05;10.95;;;10.10;99.90;;;;;;5052900;28;20016;-72
2021/05/31 01:42:49;;;;;;;21.77;12.35;;;10.10;99.90;;;;;;5053806;28;20021;-72
2021/05/31 01:45:15;;;;;;;17.25;11.95;;;10.00;99.90;;;;;;5054328;28;20018;-72
2021/05/31 01:47:42;;;;;;;21.80;12.30;;;9.90;99.90;;;;;;5053345;28;20070;-72
2021/05/31 01:50:10;;;;;;;18.50;12.52;;;9.90;99.90;;;;;;5054255;28;20075;-72
2021/05/31 01:52:38;;;;;;;19.58;12.73;;;10.00;99.90;;;;;;5054211;28;20457;-72
2021/05/31 01:55:05;;;;;;;22.63;12.25;;;10.00;99.90;;;;;;5053926;28;20378;-72
2021/05/31 01:57:30;;;;;;;20.27;13.10;;;10.00;99.90;;;;;;5054166;28;20424;-72
2021/05/31 01:59:57;;;;;;;22.85;12.68;;;10.00;99.90;;;;;;5054038;28;20115;-72
2021/05/31 02:02:23;;;;;;;21.15;12.50;;;10.00;99.90;;;;;;5054134;28;20027;-72
2021/05/31 02:04:49;;;;;;;22.65;12.48;;;10.00;99.90;;;;;;5054112;28;20096;-73
2021/05/31 02:07:15;;;;;;;19.70;11.70;;;10.00;99.90;;;;;;5054060;28;20511;-72
2021/05/31 02:09:40;;;;;;;22.45;12.32;;;10.00;99.90;;;;;;5054033;28;20447;-72
2021/05/31 02:12:09;;;;;;;25.08;13.05;;;10.00;99.90;;;;;;5053982;28;20070;-72
2021/05/31 02:15:05;;;;;;;26.38;12.73;;;10.00;99.90;;;;;;5052540;28;20032;-72
2021/05/31 02:17:41;;;;;;;20.40;12.15;;;9.90;99.90;;;;;;5053348;28;20021;-72
2021/05/31 02:20:10;;;;;;;21.33;12.80;;;9.90;99.90;;;;;;5052063;28;20094;-72
2021/05/31 02:22:40;;;;;;;22.98;13.13;;;9.90;99.90;;;;;;5053626;28;20104;-72
2021/05/31 02:25:07;;;;;;;25.77;13.98;;;9.80;99.90;;;;;;5053870;28;20029;-72
2021/05/31 02:27:33;;;;;;;29.48;14.65;;;9.80;99.90;;;;;;5053880;28;20120;-72
2021/05/31 02:30:01;;;;;;;22.02;14.10;;;9.80;99.90;;;;;;5053835;28;20474;-72
2021/05/31 02:32:28;;;;;;;30.85;17.17;;;9.70;99.90;;;;;;5053507;28;20423;-72
2021/05/31 02:34:55;;;;;;;32.15;18.08;;;9.70;99.90;;;;;;5053770;28;20060;-72
2021/05/31 02:37:40;;;;;;;39.33;22.50;;;9.60;99.90;;;;;;5053211;28;20028;-72
2021/05/31 02:40:08;;;;;;;46.22;27.42;;;9.70;99.90;;;;;;5052647;28;20366;-72
2021/05/31 02:42:38;;;;;;;49.13;28.45;;;9.80;99.90;;;;;;5053716;28;20049;-73
2021/05/31 02:45:04;;;;;;;47.65;28.05;;;9.90;99.90;;;;;;5053388;28;20025;-73
2021/05/31 02:47:30;;;;;;;51.72;26.80;;;10.00;99.90;;;;;;5053676;28;20029;-72
2021/05/31 02:49:55;;;;;;;48.90;28.45;;;10.00;99.90;;;;;;5053635;28;20025;-72
2021/05/31 02:52:21;;;;;;;42.33;25.55;;;10.00;99.90;;;;;;5053609;28;20029;-72
2021/05/31 02:54:46;;;;;;;45.67;28.02;;;10.00;99.90;;;;;;5053597;28;20142;-72
2021/05/31 02:57:12;;;;;;;48.20;29.27;;;9.90;99.90;;;;;;5053573;28;20029;-72
2021/05/31 02:59:37;;;;;;;49.88;30.33;;;9.90;99.90;;;;;;5053467;28;20021;-72
2021/05/31 03:02:03;;;;;;;44.17;28.00;;;9.90;99.90;;;;;;5053533;28;20029;-72
2021/05/31 03:04:29;;;;;;;44.08;29.02;;;9.80;99.90;;;;;;5053235;28;20021;-72
2021/05/31 03:06:54;;;;;;;49.05;28.25;;;9.80;99.90;;;;;;5056282;28;20017;-72
2021/05/31 03:09:20;;;;;;;49.90;29.00;;;9.80;99.90;;;;;;5055829;28;20429;-72
2021/05/31 03:11:45;;;;;;;47.90;28.75;;;9.70;99.90;;;;;;5057215;28;20059;-72
2021/05/31 03:14:11;;;;;;;44.80;27.30;;;9.70;99.90;;;;;;5055375;28;20440;-72
2021/05/31 03:16:36;;;;;;;51.67;28.40;;;9.70;99.90;;;;;;5057108;28;20025;-72
2021/05/31 03:19:03;;;;;;;47.25;28.10;;;9.60;99.90;;;;;;5056456;28;20424;-72
2021/05/31 03:21:28;;;;;;;45.70;26.38;;;9.60;99.90;;;;;;5057041;28;20044;-73
2021/05/31 03:23:54;;;;;;;48.67;26.20;;;9.60;99.90;;;;;;5055531;28;20475;-73
2021/05/31 03:26:19;;;;;;;41.67;25.58;;;9.60;99.90;;;;;;5056642;28;20086;-72
2021/05/31 03:28:45;;;;;;;41.53;26.35;;;9.60;99.90;;;;;;5056898;28;20036;-72
2021/05/31 03:31:10;;;;;;;45.33;25.77;;;9.60;99.90;;;;;;5056854;28;20064;-72
2021/05/31 03:33:36;;;;;;;42.22;24.45;;;9.60;99.90;;;;;;5056775;28;20035;-73
2021/05/31 03:36:01;;;;;;;42.33;24.65;;;9.60;99.90;;;;;;5056196;28;20067;-72
2021/05/31 03:38:27;;;;;;;48.47;25.63;;;9.60;99.90;;;;;;5056626;28;20079;-72
2021/05/31 03:40:53;;;;;;;38.90;23.17;;;9.60;99.90;;;;;;5056376;28;20039;-72
2021/05/31 03:43:18;;;;;;;40.05;21.90;;;9.70;99.90;;;;;;5056587;28;20027;-72
2021/05/31 03:45:44;;;;;;;39.83;23.50;;;9.70;99.90;;;;;;5056558;28;20032;-72
2021/05/31 03:48:11;;;;;;;35.97;23.35;;;9.70;99.90;;;;;;5055541;28;20036;-72
2021/05/31 03:50:37;;;;;;;38.88;23.33;;;9.70;99.90;;;;;;5056204;28;20489;-72
2021/05/31 03:53:03;;;;;;;37.60;21.83;;;9.80;99.90;;;;;;5056433;28;20078;-72
2021/05/31 03:55:28;;;;;;;40.58;23.08;;;9.80;99.90;;;;;;5056122;28;20103;-72
2021/05/31 03:57:54;;;;;;;40.20;22.83;;;9.80;99.90;;;;;;5056313;28;20032;-72
2021/05/31 04:00:20;;;;;;;33.63;20.75;;;9.90;99.90;;;;;;5055972;28;20025;-72
2021/05/31 04:02:45;;;;;;;30.13;20.20;;;9.90;99.90;;;;;;5056275;28;20486;-72
2021/05/31 04:05:14;;;;;;;32.17;19.83;;;9.90;99.90;;;;;;5055918;28;20078;-72
2021/05/31 04:13:11;;;;;;;29.60;18.20;;;10.00;99.90;;;;;;5055373;28;20021;-72
2021/05/31 04:15:37;;;;;;;37.50;19.30;;;10.10;99.90;;;;;;5056039;28;20025;-72
2021/05/31 04:18:02;;;;;;;29.83;17.63;;;10.20;99.90;;;;;;5055700;28;20415;-72
2021/05/31 04:20:28;;;;;;;31.88;18.05;;;10.30;99.90;;;;;;5055839;28;20029;-72
2021/05/31 04:22:53;;;;;;;37.65;18.30;;;10.40;99.90;;;;;;5055922;28;20053;-73
2021/05/31 04:25:19;;;;;;;27.25;17.45;;;10.70;99.90;;;;;;5054432;28;20017;-73
2021/05/31 04:27:44;;;;;;;28.55;17.08;;;10.80;99.90;;;;;;5055201;28;20043;-72
2021/05/31 04:30:11;;;;;;;29.42;16.73;;;11.00;99.90;;;;;;5055481;28;20029;-72
2021/05/31 04:32:36;;;;;;;32.78;17.38;;;11.40;99.90;;;;;;5055684;28;20025;-72
2021/05/31 04:35:03;;;;;;;24.48;15.93;;;11.90;99.90;;;;;;5055402;28;20025;-73
2021/05/31 04:37:30;;;;;;;20.35;14.18;;;13.00;99.90;;;;;;5055339;28;20020;-71
2021/05/31 04:39:56;;;;;;;26.60;14.20;;;14.20;99.90;;;;;;5055227;28;20028;-70
2021/05/31 04:42:21;;;;;;;23.05;13.15;;;15.30;99.90;;;;;;5053729;28;20021;-72
2021/05/31 04:44:47;;;;;;;21.70;13.27;;;16.30;99.90;;;;;;5055500;28;20021;-71
2021/05/31 04:47:12;;;;;;;19.33;12.80;;;16.70;99.90;;;;;;5055422;28;20138;-71
2021/05/31 04:49:38;;;;;;;19.80;12.10;;;17.00;99.90;;;;;;5055360;28;20029;-71
2021/05/31 04:52:04;;;;;;;20.95;12.27;;;17.50;99.90;;;;;;5053828;28;20037;-71
2021/05/31 04:54:29;;;;;;;19.25;11.82;;;17.90;99.90;;;;;;5055250;28;20017;-71
2021/05/31 04:56:55;;;;;;;19.13;11.73;;;18.30;99.90;;;;;;5053986;28;20033;-71
2021/05/31 04:59:20;;;;;;;13.77;11.15;;;18.50;99.90;;;;;;5055100;28;20025;-71
2021/05/31 05:01:46;;;;;;;15.65;11.52;;;18.80;99.90;;;;;;5054595;28;20017;-71
2021/05/31 05:04:12;;;;;;;15.05;11.02;;;18.90;99.90;;;;;;5055097;28;20029;-71
2021/05/31 05:06:37;;;;;;;15.18;10.82;;;19.40;99.90;;;;;;5054756;28;20021;-71
2021/05/31 05:09:03;;;;;;;17.65;11.68;;;19.50;99.90;;;;;;5053551;28;20386;-72
2021/05/31 05:11:29;;;;;;;15.40;11.65;;;19.70;99.90;;;;;;5053143;28;20025;-72
2021/05/31 05:13:55;;;;;;;16.80;11.27;;;19.40;99.90;;;;;;5054610;28;20052;-72
2021/05/31 05:16:20;;;;;;;17.08;12.30;;;19.20;99.90;;;;;;5054902;28;20438;-72
2021/05/31 05:18:48;;;;;;;16.63;12.23;;;19.10;99.90;;;;;;5054359;28;20548;-71
2021/05/31 05:21:16;;;;;;;17.83;11.68;;;19.30;99.90;;;;;;5054749;28;20025;-71
2021/05/31 05:23:43;;;;;;;17.20;12.82;;;19.70;99.90;;;;;;5052910;28;20390;-71
2021/05/31 05:26:09;;;;;;;16.30;11.77;;;20.10;99.90;;;;;;5054646;28;20041;-71
2021/05/31 05:28:37;;;;;;;15.95;11.80;;;20.60;99.90;;;;;;5053801;28;20603;-71
2021/05/31 05:31:07;;;;;;;15.73;11.68;;;21.60;99.90;;;;;;5054588;28;20025;-71
2021/05/31 05:33:35;;;;;;;14.80;11.15;;;21.20;99.90;;;;;;5054254;28;20017;-71
2021/05/31 05:41:33;;;;;;;15.20;12.27;;;22.20;99.90;;;;;;5071678;28;20441;-72
2021/05/31 05:44:13;;;;;;;15.60;12.23;;;21.40;99.90;;;;;;5071309;28;20493;-72
2021/05/31 05:49:24;;;;;;;15.20;12.30;;;21.00;99.90;;;;;;5070432;28;20397;-72
2021/05/31 05:51:50;;;;;;;23.17;12.50;;;21.30;99.90;;;;;;5071279;28;20021;-73
2021/05/31 05:54:15;;;;;;;14.82;11.88;;;21.50;99.90;;;;;;5071287;28;20039;-72
2021/05/31 05:56:41;;;;;;;17.30;12.02;;;21.80;99.90;;;;;;5070829;28;20059;-72
2021/05/31 05:59:06;;;;;;;15.10;12.35;;;22.60;99.90;;;;;;5070938;28;20033;-72
2021/05/31 06:01:32;;;;;;;15.77;12.00;;;23.00;99.90;;;;;;5069998;28;20021;-72
2021/05/31 06:03:58;;;;;;;15.80;12.18;;;23.30;99.90;;;;;;5070125;28;20377;-73
2021/05/31 06:06:25;;;;;;;15.73;11.95;;;22.80;99.90;;;;;;5070407;28;20426;-72
2021/05/31 06:08:51;;;;;;;15.45;11.95;;;23.00;99.90;;;;;;5069112;28;20410;-72
2021/05/31 06:11:17;;;;;;;16.63;11.75;;;21.90;99.90;;;;;;5070234;28;20017;-72
2021/05/31 06:13:42;;;;;;;15.82;12.88;;;22.00;99.90;;;;;;5070636;28;20065;-72
2021/05/31 06:16:11;;;;;;;16.92;12.35;;;21.80;99.90;;;;;;5070716;28;20032;-72
2021/05/31 06:18:37;;;;;;;17.42;12.15;;;21.80;99.90;;;;;;5070621;28;20020;-71
2021/05/31 06:21:02;;;;;;;18.85;13.00;;;21.80;99.90;;;;;;5070184;28;20025;-72
2021/05/31 06:23:29;;;;;;;15.93;11.60;;;22.80;99.90;;;;;;5070084;28;20029;-72
2021/05/31 06:25:55;;;;;;;15.70;12.15;;;22.40;99.90;;;;;;5070221;28;20533;-72
2021/05/31 06:28:20;;;;;;;16.77;12.02;;;21.70;99.90;;;;;;5070230;28;20100;-72
2021/05/31 06:30:46;;;;;;;15.02;12.30;;;21.10;99.90;;;;;;5069825;28;20029;-72
2021/05/31 06:33:13;;;;;;;16.30;12.00;;;21.80;99.90;;;;;;5051397;28;20060;-72
2021/05/31 06:35:39;;;;;;;17.30;12.85;;;22.30;99.90;;;;;;5068068;28;20036;-72
2021/05/31 06:38:06;;;;;;;16.88;12.77;;;22.00;99.90;;;;;;5067164;28;20052;-72
2021/05/31 06:40:32;;;;;;;15.90;11.98;;;22.50;99.90;;;;;;5065971;28;20041;-73
2021/05/31 06:42:58;;;;;;;15.52;11.73;;;22.90;99.90;;;;;;5062009;28;20503;-72
2021/05/31 06:45:27;;;;;;;15.55;12.05;;;22.60;99.90;;;;;;5059296;28;20016;-72
2021/05/31 06:47:55;;;;;;;21.65;13.43;;;22.10;99.90;;;;;;5064040;28;20036;-72
2021/05/31 06:50:22;;;;;;;18.20;13.10;;;23.00;99.90;;;;;;5064284;28;20029;-72
2021/05/31 06:52:48;;;;;;;20.63;13.65;;;24.00;99.90;;;;;;5055264;28;20017;-71
2021/05/31 06:55:15;;;;;;;20.85;12.77;;;24.60;99.90;;;;;;5054261;28;20112;-72
2021/05/31 06:57:41;;;;;;;18.90;13.00;;;24.60;99.90;;;;;;5052363;28;20057;-72
2021/05/31 07:00:10;;;;;;;18.80;13.35;;;24.80;99.90;;;;;;5051227;28;20029;-72
2021/05/31 07:02:35;;;;;;;17.98;13.90;;;24.40;99.90;;;;;;5040409;28;20017;-71
2021/05/31 07:05:01;;;;;;;19.05;14.80;;;24.40;99.90;;;;;;5051412;28;20025;-72
2021/05/31 07:07:27;;;;;;;21.50;14.18;;;24.60;99.90;;;;;;5043384;28;20105;-71
2021/05/31 07:09:53;;;;;;;19.40;13.88;;;24.90;99.90;;;;;;5048691;28;20029;-71
2021/05/31 07:12:19;;;;;;;17.00;13.40;;;24.60;99.90;;;;;;5036103;28;20056;-71
2021/05/31 07:14:47;;;;;;;19.63;14.50;;;24.70;99.90;;;;;;5051903;28;20485;-72
2021/05/31 07:17:14;;;;;;;23.85;14.25;;;24.90;99.90;;;;;;5054911;28;20032;-72
2021/05/31 07:19:43;;;;;;;21.73;13.90;;;24.70;99.90;;;;;;5049010;28;20037;-71
2021/05/31 07:22:08;;;;;;;19.75;15.20;;;24.60;99.90;;;;;;5054609;28;20051;-71
2021/05/31 07:24:34;;;;;;;20.52;14.90;;;24.10;99.90;;;;;;5049337;28;20017;-72
2021/05/31 07:26:59;;;;;;;19.05;13.68;;;24.30;99.90;;;;;;5052486;28;20474;-73
2021/05/31 07:29:26;;;;;;;18.42;13.77;;;25.30;99.50;;;;;;5053079;28;20112;-72
2021/05/31 07:31:51;;;;;;;19.85;14.73;;;25.60;98.90;;;;;;5049478;28;20478;-72
2021/05/31 07:34:17;;;;;;;22.35;14.50;;;25.50;97.80;;;;;;5054008;28;20078;-72
2021/05/31 07:36:42;;;;;;;18.75;14.30;;;25.00;98.80;;;;;;5052178;28;20102;-71
2021/05/31 07:39:10;;;;;;;18.85;13.10;;;25.10;98.00;;;;;;5036847;28;20356;-71
2021/05/31 07:41:36;;;;;;;19.92;13.88;;;26.10;99.10;;;;;;5053951;28;20029;-72
2021/05/31 07:44:02;;;;;;;18.88;13.93;;;26.00;97.70;;;;;;5054989;28;20112;-71
2021/05/31 07:46:27;;;;;;;16.98;14.05;;;24.70;99.30;;;;;;5032132;28;20103;-71
2021/05/31 07:48:53;;;;;;;18.77;13.82;;;24.40;99.90;;;;;;5035306;28;20374;-71
2021/05/31 07:51:20;;;;;;;16.80;13.15;;;24.90;99.70;;;;;;5044746;28;20028;-71
2021/05/31 07:53:48;;;;;;;19.00;13.77;;;25.70;99.20;;;;;;5054893;28;20029;-71
2021/05/31 07:56:15;;;;;;;19.75;14.13;;;24.90;99.90;;;;;;5033403;28;20086;-71
2021/05/31 07:58:42;;;;;;;16.33;14.02;;;24.90;99.80;;;;;;5033213;28;20124;-71
2021/05/31 08:01:08;;;;;;;19.98;13.90;;;24.90;99.90;;;;;;5043334;28;20063;-72
2021/05/31 08:03:34;;;;;;;21.52;14.95;;;25.40;99.90;;;;;;5043987;28;20049;-71
2021/05/31 08:06:00;;;;;;;18.60;13.15;;;26.20;97.40;;;;;;5042923;28;20039;-72
2021/05/31 08:08:27;;;;;;;21.13;14.52;;;25.70;99.90;;;;;;5055286;28;20017;-72
2021/05/31 08:10:53;;;;;;;19.33;13.57;;;25.90;98.70;;;;;;5054631;28;20029;-72
2021/05/31 08:13:19;;;;;;;19.40;15.25;;;25.80;99.90;;;;;;5036446;28;20029;-72
2021/05/31 08:15:44;;;;;;;20.55;15.45;;;26.10;98.30;;;;;;5054341;28;20029;-72
2021/05/31 08:18:11;;;;;;;16.85;13.45;;;25.90;98.30;;;;;;5054165;28;20021;-71
2021/05/31 08:20:38;;;;;;;25.02;16.60;;;27.10;97.20;;;;;;5052570;28;20025;-71
2021/05/31 08:23:04;;;;;;;18.35;14.02;;;27.00;96.40;;;;;;5052796;28;20056;-72
2021/05/31 08:25:29;;;;;;;18.90;14.00;;;26.60;96.60;;;;;;5035757;28;20060;-72
2021/05/31 08:27:55;;;;;;;15.75;12.07;;;25.50;96.60;;;;;;5045236;28;20064;-72
2021/05/31 08:30:21;;;;;;;19.42;12.63;;;26.00;96.30;;;;;;5053115;28;20033;-71
2021/05/31 08:32:47;;;;;;;17.50;12.93;;;25.80;97.00;;;;;;5053194;28;20032;-71
2021/05/31 08:35:13;;;;;;;15.88;13.00;;;25.50;96.80;;;;;;5051688;28;20032;-71
2021/05/31 08:37:39;;;;;;;18.77;12.63;;;25.90;97.40;;;;;;5039363;28;20025;-71
2021/05/31 08:40:07;;;;;;;15.93;12.93;;;26.20;97.30;;;;;;5038317;28;20033;-71
2021/05/31 08:42:36;;;;;;;18.70;13.13;;;27.10;94.90;;;;;;5051472;28;20025;-72
2021/05/31 08:45:04;;;;;;;12.88;11.10;;;27.20;94.30;;;;;;5053601;28;20017;-72
2021/05/31 08:47:29;;;;;;;15.20;11.52;;;26.70;95.60;;;;;;5042250;28;20108;-72
2021/05/31 08:49:55;;;;;;;16.48;12.90;;;27.80;93.60;;;;;;5033688;28;20574;-72
2021/05/31 08:52:21;;;;;;;14.52;11.02;;;27.50;93.90;;;;;;5049109;28;20128;-72
2021/05/31 08:54:46;;;;;;;15.63;12.27;;;27.90;93.50;;;;;;5032061;28;20033;-72
2021/05/31 08:57:12;;;;;;;17.58;12.85;;;27.20;93.20;;;;;;5043306;28;20033;-72
2021/05/31 08:59:38;;;;;;;17.67;11.45;;;26.80;94.10;;;;;;5052236;28;20040;-72
2021/05/31 09:02:04;;;;;;;15.55;12.10;;;27.80;92.50;;;;;;5051313;28;20082;-72
2021/05/31 09:04:30;;;;;;;15.77;11.07;;;27.80;90.60;;;;;;5051899;28;20029;-73
2021/05/31 09:07:00;;;;;;;16.48;12.50;;;27.80;90.80;;;;;;5048067;28;20056;-71
2021/05/31 09:09:42;;;;;;;16.90;12.80;;;27.90;90.40;;;;;;5049213;28;20452;-72
2021/05/31 09:12:10;;;;;;;18.02;11.63;;;27.20;91.80;;;;;;5036765;28;20037;-72
2021/05/31 09:14:36;;;;;;;16.38;13.13;;;27.50;91.40;;;;;;5053029;28;20119;-72
2021/05/31 09:17:03;;;;;;;18.55;12.73;;;27.40;90.50;;;;;;5052880;28;20424;-72
2021/05/31 09:19:28;;;;;;;16.60;12.60;;;28.10;91.30;;;;;;5034802;28;20033;-72
2021/05/31 09:21:54;;;;;;;15.60;11.88;;;27.90;88.80;;;;;;5051056;28;20505;-72
2021/05/31 09:24:23;;;;;;;15.60;13.15;;;28.60;88.30;;;;;;5053262;28;20092;-72
2021/05/31 09:26:56;;;;;;;18.77;13.60;;;28.40;84.30;;;;;;5049881;28;20025;-72
2021/05/31 09:29:23;;;;;;;17.83;14.18;;;28.80;85.80;;;;;;5050737;28;20027;-72
2021/05/31 09:32:06;;;;;;;20.65;14.10;;;27.30;88.60;;;;;;5035346;28;20360;-72
2021/05/31 09:34:32;;;;;;;20.13;14.20;;;27.00;90.20;;;;;;5042695;28;20021;-72
2021/05/31 09:37:00;;;;;;;19.17;13.07;;;26.60;90.70;;;;;;5047389;28;20021;-72
2021/05/31 09:39:40;;;;;;;18.98;14.15;;;27.20;91.30;;;;;;5049304;28;20044;-72
2021/05/31 09:42:14;;;;;;;17.95;14.15;;;27.20;88.20;;;;;;5052604;28;20075;-72
2021/05/31 09:44:41;;;;;;;18.27;13.57;;;27.50;90.00;;;;;;5045993;28;20029;-72
2021/05/31 09:47:07;;;;;;;18.10;13.88;;;26.90;91.20;;;;;;5052336;28;20017;-72
2021/05/31 09:49:35;;;;;;;20.83;13.93;;;26.70;91.30;;;;;;5052725;28;20547;-71
2021/05/31 09:52:04;;;;;;;17.55;13.63;;;26.60;90.90;;;;;;5052673;28;20099;-71
2021/05/31 09:54:38;;;;;;;17.85;13.75;;;27.10;90.60;;;;;;5051192;28;20025;-71
2021/05/31 09:57:26;;;;;;;18.90;12.90;;;25.60;91.80;;;;;;5035347;28;20094;-71
2021/05/31 10:00:06;;;;;;;16.05;11.43;;;24.60;93.60;;;;;;5046364;28;20535;-71
2021/05/31 10:02:59;;;;;;;16.80;12.13;;;24.50;95.50;;;;;;5055696;28;20398;-71
2021/05/31 10:05:32;;;;;;;16.80;12.32;;;24.60;94.80;;;;;;5041437;28;20048;-71
2021/05/31 10:10:47;;;;;;;13.23;10.23;;;24.80;92.90;;;;;;5110833;27;20412;-71
2021/05/31 10:13:12;;;;;;;13.65;10.48;;;23.90;94.70;;;;;;5109820;28;20031;-71
2021/05/31 10:15:41;;;;;;;16.38;10.77;;;23.80;95.60;;;;;;5092098;28;20024;-71
2021/05/31 10:18:10;;;;;;;18.98;10.73;;;24.30;94.60;;;;;;5109803;28;20063;-71
2021/05/31 10:20:37;;;;;;;17.45;10.73;;;24.40;93.80;;;;;;5088181;28;20542;-71
2021/05/31 10:23:04;;;;;;;12.82;9.02;;;25.40;92.20;;;;;;5092192;28;20504;-71
2021/05/31 10:25:31;;;;;;;12.00;7.75;;;25.50;91.70;;;;;;5112844;28;20024;-71
2021/05/31 10:28:03;;;;;;;11.80;7.70;;;26.30;93.20;;;;;;5092337;28;20381;-71
2021/05/31 10:30:40;;;;;;;12.88;8.65;;;26.50;90.10;;;;;;5103813;28;20509;-70
2021/05/31 10:33:14;;;;;;;13.32;8.82;;;25.90;88.00;;;;;;5096594;28;20046;-70
2021/05/31 10:35:40;;;;;;;8.45;7.05;;;25.60;86.60;;;;;;5110007;28;20036;-71
2021/05/31 10:38:11;;;;;;;11.85;6.97;;;25.30;88.10;;;;;;5110300;28;20178;-71
2021/05/31 10:40:43;;;;;;;11.35;7.47;;;26.10;85.20;;;;;;5109583;28;20377;-71
2021/05/31 10:43:10;;;;;;;8.60;7.25;;;25.40;87.80;;;;;;5110220;28;20099;-71
2021/05/31 10:45:38;;;;;;;13.25;6.97;;;25.00;88.40;;;;;;5107550;28;20773;-71
2021/05/31 10:50:51;;;;;;;11.38;7.55;;;23.60;92.20;;;;;;5109905;27;20367;-70
2021/05/31 10:56:04;;;;;;;12.70;9.40;;;23.50;92.60;;;;;;5109599;27;20420;-70
2021/05/31 10:58:35;;;;;;;14.02;9.23;;;22.90;93.20;;;;;;5109012;28;20020;-70
2021/05/31 11:01:04;;;;;;;13.30;9.18;;;22.80;95.60;;;;;;5103047;28;20031;-70
2021/05/31 11:03:42;;;;;;;15.57;9.13;;;22.80;93.90;;;;;;5107872;28;20708;-70
2021/05/31 11:06:12;;;;;;;12.35;9.02;;;22.90;94.50;;;;;;5110315;28;20391;-70
2021/05/31 11:08:48;;;;;;;12.48;8.40;;;23.80;92.30;;;;;;5104509;28;20044;-70
2021/05/31 11:11:28;;;;;;;10.88;7.45;;;23.90;90.80;;;;;;5098164;28;20071;-70
2021/05/31 11:13:54;;;;;;;13.27;8.35;;;23.90;92.10;;;;;;5109408;28;20070;-70
2021/05/31 11:16:20;;;;;;;9.45;7.20;;;24.10;90.80;;;;;;5107861;28;20031;-70
2021/05/31 11:18:48;;;;;;;9.18;6.93;;;23.80;90.30;;;;;;5101859;28;20033;-70
2021/05/31 11:21:31;;;;;;;11.30;7.43;;;23.90;92.90;;;;;;5109694;28;20020;-70
2021/05/31 11:23:59;;;;;;;;;;;24.20;83.20;;;;;;5101792;28;20032;-70
2021/05/31 11:26:28;;;;;;;11.50;7.03;;;24.30;85.50;;;;;;5094592;28;19946;-70
2021/05/31 11:28:55;;;;;;;10.98;6.55;;;24.10;81.20;;;;;;5108355;28;20491;-70
2021/05/31 11:31:22;;;;;;;9.27;6.28;;;24.10;88.00;;;;;;5109097;28;20024;-70
2021/05/31 11:33:53;;;;;;;10.20;6.85;;;23.70;81.30;;;;;;5109508;28;20031;-70
2021/05/31 11:36:40;;;;;;;10.68;5.95;;;23.80;82.10;;;;;;5100678;28;20032;-70
2021/05/31 11:39:13;;;;;;;9.98;6.82;;;24.20;80.90;;;;;;5109468;28;20020;-65
2021/05/31 11:41:49;;;;;;;9.52;6.65;;;24.40;75.50;;;;;;5108868;28;20015;-70
2021/05/31 11:44:27;;;;;;;10.32;8.05;;;23.60;83.00;;;;;;5109814;28;20047;-69
2021/05/31 11:46:55;;;;;;;10.63;7.55;;;23.50;83.50;;;;;;5102281;28;20028;-69
2021/05/31 11:49:23;;;;;;;9.55;7.75;;;23.70;86.30;;;;;;5088585;28;20072;-69
2021/05/31 11:52:10;;;;;;;12.00;6.45;;;23.40;84.80;;;;;;5111084;28;20420;-69
2021/05/31 11:54:38;;;;;;;9.48;6.53;;;23.50;90.20;;;;;;5104899;28;20040;-69
2021/05/31 11:57:07;;;;;;;10.82;7.65;;;23.90;90.20;;;;;;5108475;28;20024;-69
2021/05/31 11:59:35;;;;;;;10.27;6.85;;;23.70;84.20;;;;;;5107752;28;20027;-69
2021/05/31 12:02:03;;;;;;;11.45;7.40;;;23.70;90.50;;;;;;5102717;28;20056;-69
2021/05/31 12:04:29;;;;;;;13.73;8.82;;;23.80;84.50;;;;;;5092551;28;20024;-69
2021/05/31 12:07:00;;;;;;;10.55;7.07;;;23.90;84.50;;;;;;5096106;28;20388;-69
2021/05/31 12:09:26;;;;;;;12.45;7.35;;;23.70;85.30;;;;;;5083777;28;20075;-69
2021/05/31 12:11:53;;;;;;;9.23;6.70;;;23.80;90.30;;;;;;5095283;28;20099;-70
2021/05/31 12:14:20;;;;;;;10.73;7.43;;;23.40;87.80;;;;;;5095821;28;20020;-74
2021/05/31 12:16:58;;;;;;;10.38;6.72;;;23.40;88.40;;;;;;5093490;28;20024;-74
2021/05/31 12:19:26;;;;;;;10.65;7.50;;;23.70;89.60;;;;;;5095052;28;20055;-74
2021/05/31 12:21:55;;;;;;;10.63;6.93;;;23.70;82.40;;;;;;5095669;28;20039;-74
2021/05/31 12:24:30;;;;;;;7.97;7.18;;;23.60;81.60;;;;;;5093813;28;20028;-74
2021/05/31 12:26:59;;;;;;;9.65;6.70;;;23.60;80.60;;;;;;5094121;28;20070;-74
2021/05/31 12:29:46;;;;;;;8.63;6.03;;;23.30;82.10;;;;;;5094060;28;20024;-74
2021/05/31 12:32:15;;;;;;;12.98;6.90;;;23.70;84.30;;;;;;5095891;28;20032;-74
2021/05/31 12:34:42;;;;;;;9.57;6.20;;;23.50;80.80;;;;;;5095082;28;20020;-74
2021/05/31 12:37:10;;;;;;;10.27;7.05;;;23.70;86.70;;;;;;5095551;28;20054;-74
2021/05/31 12:39:40;;;;;;;11.35;6.45;;;23.60;83.50;;;;;;5095316;28;20063;-74
2021/05/31 12:42:06;;;;;;;9.82;5.53;;;23.70;89.00;;;;;;5094492;28;20029;-74
2021/05/31 12:44:32;;;;;;;7.90;5.47;;;23.90;83.60;;;;;;5095415;28;20046;-74
2021/05/31 12:47:14;;;;;;;10.93;5.63;;;23.80;86.70;;;;;;5095276;28;20389;-74
2021/05/31 12:49:43;;;;;;;7.80;6.47;;;23.70;83.30;;;;;;5075614;28;20040;-74
2021/05/31 12:52:09;;;;;;;9.38;5.85;;;24.00;82.90;;;;;;5094521;28;20474;-73
2021/05/31 12:54:35;;;;;;;6.47;5.32;;;24.10;78.00;;;;;;5094523;28;20055;-74
2021/05/31 12:57:13;;;;;;;8.90;5.90;;;24.00;80.60;;;;;;5094906;28;20473;-74